Time;durP1;ratioP1;P1;durP2;ratioP2;P2;SDS_P1;SDS_P2;PMS_P1;PMS_P2;Temp;Humidity;BMP_temperature;BMP_pressure;BME280_temperature;BME280_humidity;BME280_pressure;Samples;Min_cycle;Max_cycle;Signal;HPM_P1;HPM_P2
2021/01/01 00:00:14;;;;;;;1999.90;999.90;;;4.20;99.90;;;;;;5065158;28;20174;-80
2021/01/01 00:02:43;;;;;;;1999.90;999.90;;;4.20;99.90;;;;;;5081797;28;20180;-80
2021/01/01 00:05:15;;;;;;;1999.90;999.90;;;4.20;99.90;;;;;;5064914;28;20160;-80
2021/01/01 00:07:41;;;;;;;1999.90;999.90;;;4.20;99.90;;;;;;5063348;28;20156;-80
2021/01/01 00:10:08;;;;;;;1999.90;999.90;;;4.20;99.90;;;;;;5064023;28;20259;-80
2021/01/01 00:12:37;;;;;;;1999.90;999.90;;;4.10;99.90;;;;;;5063601;28;20189;-80
2021/01/01 00:15:08;;;;;;;1999.90;999.90;;;4.10;99.90;;;;;;5081561;28;20186;-80
2021/01/01 00:17:36;;;;;;;1999.90;999.90;;;4.10;99.90;;;;;;5081776;28;20646;-80
2021/01/01 00:20:05;;;;;;;1999.90;999.90;;;4.10;99.90;;;;;;5082064;28;20569;-80
2021/01/01 00:22:31;;;;;;;1999.90;999.90;;;4.10;99.90;;;;;;5046991;28;20206;-80
2021/01/01 00:24:56;;;;;;;1999.90;999.90;;;4.10;99.90;;;;;;5063888;28;20171;-80
2021/01/01 00:27:22;;;;;;;1999.90;999.90;;;4.00;99.90;;;;;;5081334;28;20398;-80
2021/01/01 00:29:48;;;;;;;1999.90;999.90;;;4.10;99.90;;;;;;5081530;28;20168;-81
2021/01/01 00:32:19;;;;;;;1999.90;999.90;;;4.10;99.90;;;;;;5081652;28;20164;-80
2021/01/01 00:34:45;;;;;;;1999.90;999.90;;;4.10;99.90;;;;;;5081873;28;20235;-80
2021/01/01 00:37:11;;;;;;;1999.90;999.90;;;4.00;99.90;;;;;;5063527;28;20650;-80
2021/01/01 00:39:37;;;;;;;1999.90;999.90;;;4.10;99.90;;;;;;5063591;28;20769;-80
2021/01/01 00:42:06;;;;;;;1999.90;999.90;;;4.10;99.90;;;;;;5081266;28;20186;-80
2021/01/01 00:44:32;;;;;;;1999.90;999.90;;;4.10;99.90;;;;;;5061974;28;20171;-80
2021/01/01 00:47:01;;;;;;;1999.90;999.90;;;4.10;99.90;;;;;;5081047;28;20168;-80
2021/01/01 00:49:29;;;;;;;1999.90;999.90;;;4.00;99.90;;;;;;5081415;28;20168;-80
2021/01/01 00:51:55;;;;;;;1999.90;999.90;;;4.00;99.90;;;;;;5081053;28;20184;-80
2021/01/01 00:54:20;;;;;;;1999.90;999.90;;;3.90;99.90;;;;;;5081537;28;20175;-80
2021/01/01 00:56:49;;;;;;;1999.90;999.90;;;3.90;99.90;;;;;;5063357;28;20909;-80
2021/01/01 00:59:15;;;;;;;1999.90;999.90;;;3.90;99.90;;;;;;5081136;28;20177;-80
2021/01/01 01:01:40;;;;;;;1999.90;999.90;;;4.00;99.90;;;;;;5080772;28;20250;-80
2021/01/01 01:04:06;;;;;;;1999.90;999.90;;;4.00;99.90;;;;;;5063065;28;20698;-80
2021/01/01 01:06:32;;;;;;;1999.90;999.90;;;4.10;99.90;;;;;;5081079;28;20402;-80
2021/01/01 01:08:58;;;;;;;1999.90;999.90;;;4.00;99.90;;;;;;5064098;28;20171;-80
2021/01/01 01:11:25;;;;;;;1999.90;999.90;;;4.00;99.90;;;;;;5063411;28;20634;-80
2021/01/01 01:13:52;;;;;;;1999.90;999.90;;;4.00;99.90;;;;;;5081207;28;20179;-80
2021/01/01 01:16:25;;;;;;;1999.90;999.90;;;4.10;99.90;;;;;;5062377;28;20194;-80
2021/01/01 01:18:54;;;;;;;1999.90;999.90;;;4.20;99.90;;;;;;5062538;28;20524;-80
2021/01/01 01:21:21;;;;;;;1999.90;999.90;;;4.10;99.90;;;;;;5061886;28;20171;-80
2021/01/01 01:23:47;;;;;;;1999.90;999.90;;;4.10;99.90;;;;;;5073518;23;20215;-85
2021/01/01 01:26:13;;;;;;;1999.90;999.90;;;4.00;99.90;;;;;;5078834;28;20156;-82
2021/01/01 01:28:38;;;;;;;1999.90;999.90;;;4.00;99.90;;;;;;5061184;28;20175;-82
2021/01/01 01:31:04;;;;;;;1999.90;999.90;;;3.90;99.90;;;;;;5078942;28;20156;-82
2021/01/01 01:33:31;;;;;;;1999.90;999.90;;;4.00;99.90;;;;;;5078912;28;20508;-82
2021/01/01 01:35:58;;;;;;;1999.90;999.90;;;4.00;99.90;;;;;;5079419;28;20462;-82
2021/01/01 01:38:23;;;;;;;1999.90;999.90;;;4.10;99.90;;;;;;5087892;28;20164;-81
2021/01/01 01:40:49;;;;;;;1999.90;999.90;;;4.10;99.90;;;;;;5087979;28;20164;-81
2021/01/01 01:43:16;;;;;;;1999.90;999.90;;;4.10;99.90;;;;;;5060621;28;20191;-81
2021/01/01 01:45:41;;;;;;;1999.90;999.90;;;4.10;99.90;;;;;;5079324;28;20167;-82
2021/01/01 01:48:12;;;;;;;1999.90;999.90;;;4.10;99.90;;;;;;5078647;28;20179;-82
2021/01/01 01:50:38;;;;;;;1999.90;999.90;;;4.00;99.90;;;;;;5078336;28;20156;-82
2021/01/01 01:53:05;;;;;;;1999.90;999.90;;;4.10;99.90;;;;;;5078524;28;20692;-82
2021/01/01 01:55:31;;;;;;;1999.90;999.90;;;4.00;99.90;;;;;;5079875;28;20473;-82
2021/01/01 01:57:58;;;;;;;1999.90;999.90;;;4.00;99.90;;;;;;5082815;28;20186;-82
2021/01/01 02:02:55;;;;;;;1999.90;999.90;;;4.10;99.90;;;;;;5082071;28;20211;-82
2021/01/01 02:05:20;;;;;;;1999.90;999.90;;;4.10;99.90;;;;;;5082026;28;20583;-82
2021/01/01 02:07:47;;;;;;;1999.90;999.90;;;4.10;99.90;;;;;;5064678;28;20168;-82
2021/01/01 02:10:13;;;;;;;1999.90;999.90;;;3.90;99.90;;;;;;5081801;28;20402;-82
2021/01/01 02:12:40;;;;;;;1999.90;999.90;;;4.00;99.90;;;;;;5082282;28;20194;-82
2021/01/01 02:15:06;;;;;;;1999.90;999.90;;;4.00;99.90;;;;;;5082581;28;20534;-82
2021/01/01 02:17:32;;;;;;;1999.90;999.90;;;4.00;99.90;;;;;;5082409;28;20198;-82
2021/01/01 02:20:11;;;;;;;1999.90;999.90;;;4.10;99.90;;;;;;5063994;28;20168;-82
2021/01/01 02:22:41;;;;;;;1999.90;999.90;;;4.10;99.90;;;;;;5081975;28;20187;-82
2021/01/01 02:25:08;;;;;;;1999.90;999.90;;;4.00;99.90;;;;;;5082178;28;20557;-82
2021/01/01 02:27:35;;;;;;;1999.90;999.90;;;4.00;99.90;;;;;;5081474;28;20159;-82
2021/01/01 02:30:00;;;;;;;1999.90;999.90;;;4.00;99.90;;;;;;5081973;28;20530;-82
2021/01/01 02:32:26;;;;;;;1999.90;999.90;;;4.10;99.90;;;;;;5081880;28;20171;-83
2021/01/01 02:34:52;;;;;;;1999.90;999.90;;;4.10;99.90;;;;;;5082415;28;20175;-84
2021/01/01 02:37:17;;;;;;;1999.90;999.90;;;4.10;99.90;;;;;;5081665;28;20425;-83
2021/01/01 02:39:43;;;;;;;1999.90;999.90;;;4.00;99.90;;;;;;5081729;28;20164;-82
2021/01/01 02:42:09;;;;;;;1999.90;999.90;;;4.00;99.90;;;;;;5081567;28;20214;-82
2021/01/01 02:44:35;;;;;;;1999.90;999.90;;;4.00;99.90;;;;;;5082070;28;20269;-82
2021/01/01 02:47:01;;;;;;;1999.90;999.90;;;3.90;99.90;;;;;;5081196;28;20402;-82
2021/01/01 02:49:27;;;;;;;1999.90;999.90;;;4.00;99.90;;;;;;5081158;28;20245;-82
2021/01/01 02:51:53;;;;;;;1999.90;999.90;;;4.00;99.90;;;;;;5081564;28;20159;-82
2021/01/01 02:54:19;;;;;;;1999.90;999.90;;;4.00;99.90;;;;;;5081627;28;20171;-82
2021/01/01 02:56:44;;;;;;;1999.90;999.90;;;4.00;99.90;;;;;;5082275;28;20489;-82
2021/01/01 02:59:10;;;;;;;1999.90;999.90;;;4.10;99.90;;;;;;5081366;28;20406;-82
2021/01/01 03:01:36;;;;;;;1999.90;999.90;;;4.10;99.90;;;;;;5081092;28;20179;-82
2021/01/01 03:04:01;;;;;;;1999.90;999.90;;;4.10;99.90;;;;;;5081802;28;20160;-82
2021/01/01 03:06:27;;;;;;;1999.90;999.90;;;4.10;99.90;;;;;;5063262;28;20164;-82
2021/01/01 03:08:52;;;;;;;1999.90;999.90;;;4.10;99.90;;;;;;5063422;28;20175;-82
2021/01/01 03:11:20;;;;;;;1999.90;999.90;;;4.00;99.90;;;;;;5082047;28;20163;-82
2021/01/01 03:13:45;;;;;;;1999.90;999.90;;;4.00;99.90;;;;;;5081974;28;20164;-82
2021/01/01 03:16:11;;;;;;;1999.90;999.90;;;4.00;99.90;;;;;;5063274;28;20255;-82
2021/01/01 03:18:37;;;;;;;1999.90;999.90;;;4.00;99.90;;;;;;5063315;28;20267;-82
2021/01/01 03:21:08;;;;;;;1999.90;999.90;;;3.90;99.90;;;;;;5081887;28;20176;-82
2021/01/01 03:23:33;;;;;;;1999.90;999.90;;;3.90;99.90;;;;;;5081411;28;20203;-82
2021/01/01 03:25:59;;;;;;;1999.90;999.90;;;3.90;99.90;;;;;;5081586;28;20263;-82
2021/01/01 03:28:25;;;;;;;1999.90;999.90;;;3.90;99.90;;;;;;5080773;28;20160;-82
2021/01/01 03:30:53;;;;;;;1999.90;999.90;;;3.90;99.90;;;;;;5081140;28;20160;-82
2021/01/01 03:33:19;;;;;;;1999.90;999.90;;;3.90;99.90;;;;;;5080729;28;20164;-82
2021/01/01 03:35:44;;;;;;;1999.90;999.90;;;4.00;99.90;;;;;;5081490;28;20164;-82
2021/01/01 03:38:11;;;;;;;1999.90;999.90;;;4.00;99.90;;;;;;5081627;28;20286;-82
2021/01/01 03:40:36;;;;;;;1999.90;999.90;;;4.00;99.90;;;;;;5081511;28;20255;-82
2021/01/01 03:43:02;;;;;;;1999.90;999.90;;;4.00;99.90;;;;;;5080828;28;20321;-82
2021/01/01 03:45:29;;;;;;;1999.90;999.90;;;4.00;99.90;;;;;;5062323;28;20254;-82
2021/01/01 03:47:55;;;;;;;1999.90;999.90;;;4.00;99.90;;;;;;5080757;28;20160;-82
2021/01/01 03:50:20;;;;;;;1999.90;999.90;;;3.90;99.90;;;;;;5062377;28;20257;-84
2021/01/01 03:52:46;;;;;;;1999.90;999.90;;;3.80;99.90;;;;;;5062219;28;20279;-84
2021/01/01 03:55:15;;;;;;;1999.90;999.90;;;3.80;99.90;;;;;;5080570;28;20172;-83
2021/01/01 03:57:40;;;;;;;1999.90;999.90;;;3.70;99.90;;;;;;5062554;28;20186;-81
2021/01/01 04:00:07;;;;;;;1999.90;999.90;;;3.70;99.90;;;;;;5062755;28;20176;-82
2021/01/01 04:02:36;;;;;;;1999.90;999.90;;;3.80;99.90;;;;;;5081484;28;20199;-82
2021/01/01 04:05:02;;;;;;;1999.90;999.90;;;3.90;99.90;;;;;;5081623;28;20164;-82
2021/01/01 04:07:28;;;;;;;1999.90;999.90;;;3.80;99.90;;;;;;5062712;28;20160;-82
2021/01/01 04:09:53;;;;;;;1999.90;999.90;;;3.80;99.90;;;;;;5080578;28;20160;-82
2021/01/01 04:12:19;;;;;;;1999.90;999.90;;;3.80;99.90;;;;;;5080619;28;20168;-82
2021/01/01 04:14:45;;;;;;;1999.90;999.90;;;3.80;99.90;;;;;;5081391;28;20302;-81
2021/01/01 04:17:11;;;;;;;1999.90;999.90;;;3.80;99.90;;;;;;5079791;28;20171;-82
2021/01/01 04:19:36;;;;;;;1999.90;999.90;;;3.70;99.90;;;;;;5078958;28;20494;-81
2021/01/01 04:22:02;;;;;;;1999.90;999.90;;;3.70;99.90;;;;;;5080386;28;20446;-83
2021/01/01 04:24:28;;;;;;;1999.90;999.90;;;3.70;99.90;;;;;;5062587;28;20184;-84
2021/01/01 04:26:54;;;;;;;1999.90;999.90;;;3.70;99.90;;;;;;5062231;28;20171;-84
2021/01/01 04:34:18;;;;;;;1999.90;999.90;;;3.80;99.90;;;;;;5228010;23;20228;-85
2021/01/01 04:36:44;;;;;;;1999.90;999.90;;;3.70;99.90;;;;;;5059174;28;20197;-84
2021/01/01 04:39:09;;;;;;;1999.90;999.90;;;3.70;99.90;;;;;;5041694;28;20164;-84
2021/01/01 04:41:36;;;;;;;1999.90;999.90;;;3.80;99.90;;;;;;5059959;28;20198;-85
2021/01/01 04:44:03;;;;;;;1999.90;999.90;;;3.70;99.90;;;;;;5062288;28;20161;-84
2021/01/01 04:46:29;;;;;;;1999.90;999.90;;;3.70;99.90;;;;;;5061809;28;20222;-84
2021/01/01 04:48:56;;;;;;;1999.90;999.90;;;3.70;99.90;;;;;;5138437;22;20295;-84
2021/01/01 04:51:21;;;;;;;1999.90;999.90;;;3.70;99.90;;;;;;5035531;28;20168;-84
2021/01/01 04:53:48;;;;;;;1999.90;999.90;;;3.80;99.90;;;;;;5035886;28;20248;-84
2021/01/01 04:56:14;;;;;;;1999.90;999.90;;;3.80;99.90;;;;;;5017752;28;20173;-84
2021/01/01 04:58:39;;;;;;;1999.90;999.90;;;3.90;99.90;;;;;;5035717;28;20162;-84
2021/01/01 05:01:05;;;;;;;1999.90;999.90;;;3.90;99.90;;;;;;5035666;28;20404;-84
2021/01/01 05:03:32;;;;;;;1999.90;999.90;;;3.90;99.90;;;;;;5035726;28;20181;-84
2021/01/01 05:05:58;;;;;;;1999.90;999.90;;;3.90;99.90;;;;;;5017554;28;20538;-84
2021/01/01 05:08:24;;;;;;;1999.90;999.90;;;4.00;99.90;;;;;;5035301;28;20165;-84
2021/01/01 05:10:50;;;;;;;1999.90;999.90;;;3.90;99.90;;;;;;5035766;28;20414;-84
2021/01/01 05:13:20;;;;;;;1999.90;999.90;;;3.90;99.90;;;;;;5018340;28;20169;-84
2021/01/01 05:15:48;;;;;;;1999.90;999.90;;;3.90;99.90;;;;;;5035138;28;20220;-84
2021/01/01 05:18:20;;;;;;;1999.90;999.90;;;3.90;99.90;;;;;;5017504;28;20173;-84
2021/01/01 05:20:48;;;;;;;1999.90;999.90;;;4.00;99.90;;;;;;5017373;28;20255;-84
2021/01/01 05:23:28;;;;;;;1999.90;999.90;;;3.90;99.90;;;;;;5017517;28;20193;-84
2021/01/01 05:26:17;;;;;;;1999.90;999.90;;;3.90;99.90;;;;;;5018484;28;20608;-84
2021/01/01 05:28:48;;;;;;;1999.90;999.90;;;3.90;99.90;;;;;;5036492;28;20156;-84
2021/01/01 05:31:15;;;;;;;1999.90;999.90;;;3.90;99.90;;;;;;5034732;28;20161;-84
2021/01/01 05:33:42;;;;;;;1999.90;999.90;;;4.00;99.90;;;;;;5034952;28;20176;-84
2021/01/01 05:36:08;;;;;;;1999.90;999.90;;;4.00;99.90;;;;;;5017324;28;20169;-84
2021/01/01 05:38:37;;;;;;;1999.90;999.90;;;4.00;99.90;;;;;;5016985;28;20169;-84
2021/01/01 05:41:04;;;;;;;1999.90;999.90;;;4.00;99.90;;;;;;5035760;28;20779;-85
2021/01/01 05:43:29;;;;;;;1999.90;999.90;;;4.00;99.90;;;;;;5034694;28;20193;-84
2021/01/01 05:46:07;;;;;;;1999.90;999.90;;;4.00;99.90;;;;;;5035038;28;20196;-84
2021/01/01 05:48:33;;;;;;;1999.90;999.90;;;4.00;99.90;;;;;;5035103;28;20153;-84
2021/01/01 05:51:06;;;;;;;1999.90;999.90;;;4.00;99.90;;;;;;5034857;28;20160;-85
2021/01/01 05:53:32;;;;;;;1999.90;999.90;;;4.00;99.90;;;;;;5017052;28;20204;-85
2021/01/01 05:56:08;;;;;;;1999.90;999.90;;;4.00;99.90;;;;;;5034911;28;20660;-84
2021/01/01 05:58:34;;;;;;;1999.90;999.90;;;4.00;99.90;;;;;;5034980;28;20531;-85
2021/01/01 06:01:02;;;;;;;1999.90;999.90;;;4.00;99.90;;;;;;5034778;28;20204;-84
2021/01/01 06:03:33;;;;;;;1999.90;999.90;;;4.00;99.90;;;;;;5034533;28;20185;-84
2021/01/01 06:06:04;;;;;;;1999.90;999.90;;;4.10;99.90;;;;;;5017225;28;20149;-84
2021/01/01 06:08:30;;;;;;;1999.90;999.90;;;4.10;99.90;;;;;;5017971;28;20146;-84
2021/01/01 06:11:04;;;;;;;1999.90;999.90;;;4.10;99.90;;;;;;5017203;28;20169;-84
2021/01/01 06:13:32;;;;;;;1999.90;999.90;;;4.10;99.90;;;;;;5035025;28;20149;-84
2021/01/01 06:15:59;;;;;;;1999.90;999.90;;;4.10;99.90;;;;;;5034574;28;20169;-84
2021/01/01 06:18:33;;;;;;;1999.90;999.90;;;4.10;99.90;;;;;;5017083;28;20535;-84
2021/01/01 06:21:01;;;;;;;1999.90;999.90;;;4.10;99.90;;;;;;5017631;28;20526;-85
2021/01/01 06:23:36;;;;;;;1999.90;999.90;;;4.10;99.90;;;;;;5034936;28;20185;-84
2021/01/01 06:26:11;;;;;;;1999.90;999.90;;;4.10;99.90;;;;;;5017557;28;20639;-85
2021/01/01 06:28:41;;;;;;;1999.90;999.90;;;4.10;99.90;;;;;;5017906;28;20180;-85
2021/01/01 06:31:10;;;;;;;1999.90;999.90;;;4.20;99.90;;;;;;5017746;28;20597;-85
2021/01/01 06:33:36;;;;;;;1999.90;999.90;;;4.20;99.90;;;;;;5034948;28;20181;-85
2021/01/01 06:36:02;;;;;;;1999.90;999.90;;;4.10;99.90;;;;;;5017278;28;20173;-85
2021/01/01 06:38:42;;;;;;;1999.90;999.90;;;4.10;99.90;;;;;;5016837;28;20264;-85
2021/01/01 06:41:14;;;;;;;1999.90;999.90;;;4.10;99.90;;;;;;5035014;28;20181;-85
2021/01/01 06:43:54;;;;;;;1999.90;999.90;;;4.10;99.90;;;;;;5037816;28;20242;-85
2021/01/01 06:46:35;;;;;;;1999.90;999.90;;;4.00;99.90;;;;;;5021024;28;20526;-85
2021/01/01 06:49:06;;;;;;;1999.90;999.90;;;4.00;99.90;;;;;;5020156;28;20663;-85
2021/01/01 06:51:32;;;;;;;1999.90;999.90;;;4.10;99.90;;;;;;5020780;28;20501;-85
2021/01/01 06:54:11;;;;;;;1999.90;999.90;;;4.10;99.90;;;;;;5038650;28;20257;-85
2021/01/01 06:56:41;;;;;;;1999.90;999.90;;;4.00;99.90;;;;;;5038148;28;20565;-85
2021/01/01 06:59:08;;;;;;;1999.90;999.90;;;4.00;99.90;;;;;;5038388;28;20161;-85
2021/01/01 07:01:45;;;;;;;1999.90;999.90;;;3.90;99.90;;;;;;5020870;28;20196;-85
2021/01/01 07:04:12;;;;;;;1999.90;999.90;;;4.00;99.90;;;;;;5038511;28;20157;-85
2021/01/01 07:06:42;;;;;;;1999.90;999.90;;;4.00;99.90;;;;;;5020324;28;20692;-85
2021/01/01 07:09:09;;;;;;;1999.90;999.90;;;4.00;99.90;;;;;;5038038;28;20587;-85
2021/01/01 07:11:37;;;;;;;1999.90;999.90;;;4.00;99.90;;;;;;5020367;28;20219;-85
2021/01/01 07:14:11;;;;;;;1999.90;999.90;;;4.00;99.90;;;;;;5038138;28;20251;-85
2021/01/01 07:16:42;;;;;;;1999.90;999.90;;;4.00;99.90;;;;;;5038012;28;20620;-85
2021/01/01 07:19:09;;;;;;;1999.90;999.90;;;3.90;99.90;;;;;;5037513;28;20158;-85
2021/01/01 07:21:36;;;;;;;1999.90;999.90;;;4.00;99.90;;;;;;5020352;28;20173;-85
2021/01/01 07:24:02;;;;;;;1999.90;999.90;;;4.00;99.90;;;;;;5038057;28;20177;-85
2021/01/01 07:26:30;;;;;;;1999.90;999.90;;;4.00;99.90;;;;;;5020220;28;20568;-85
2021/01/01 07:28:57;;;;;;;1999.90;999.90;;;4.00;99.90;;;;;;5020623;28;20231;-85
2021/01/01 07:31:23;;;;;;;1999.90;999.90;;;3.90;99.90;;;;;;5020375;28;20264;-85
2021/01/01 07:33:49;;;;;;;1999.90;999.90;;;4.00;99.90;;;;;;5020560;28;20203;-85
2021/01/01 07:36:15;;;;;;;1999.90;999.90;;;4.00;99.90;;;;;;5020506;28;20260;-85
2021/01/01 07:38:47;;;;;;;1999.90;999.90;;;4.00;99.90;;;;;;5020487;28;20416;-85
2021/01/01 07:41:16;;;;;;;1999.90;999.90;;;4.00;99.90;;;;;;5037316;28;20280;-85
2021/01/01 07:43:41;;;;;;;1999.90;999.90;;;4.00;99.90;;;;;;5037328;28;20185;-85
2021/01/01 07:46:09;;;;;;;1999.90;999.90;;;3.90;99.90;;;;;;5019315;28;20172;-85
2021/01/01 07:48:36;;;;;;;1999.90;999.90;;;3.90;99.90;;;;;;5020453;28;20596;-85
2021/01/01 07:51:14;;;;;;;1999.90;999.90;;;4.00;99.90;;;;;;5020206;28;20212;-85
2021/01/01 07:53:40;;;;;;;1999.90;999.90;;;3.90;99.90;;;;;;5038239;28;20141;-85
2021/01/01 07:56:08;;;;;;;1999.90;999.90;;;3.90;99.90;;;;;;5019490;28;20200;-85
2021/01/01 07:58:35;;;;;;;1999.90;999.90;;;3.90;99.90;;;;;;5019490;28;20644;-85
2021/01/01 08:01:06;;;;;;;1999.90;999.90;;;3.90;99.90;;;;;;5036614;28;20535;-84
2021/01/01 08:03:33;;;;;;;1999.90;999.90;;;3.80;99.90;;;;;;5019253;28;20188;-85
2021/01/01 08:06:00;;;;;;;1999.90;999.90;;;3.90;99.90;;;;;;5019542;28;20176;-85
2021/01/01 08:08:26;;;;;;;1999.90;999.90;;;3.90;99.90;;;;;;5036874;28;20161;-85
2021/01/01 08:10:54;;;;;;;1999.90;999.90;;;3.90;99.90;;;;;;5036730;28;20168;-85
2021/01/01 08:13:31;;;;;;;1999.90;999.90;;;3.90;99.90;;;;;;5019789;28;20408;-85
2021/01/01 08:15:59;;;;;;;1999.90;999.90;;;4.00;99.90;;;;;;5036545;28;20516;-84
2021/01/01 08:18:26;;;;;;;1999.90;999.90;;;4.00;99.90;;;;;;5036692;28;20161;-85
2021/01/01 08:21:00;;;;;;;1999.90;999.90;;;4.00;99.90;;;;;;5018506;28;20192;-85
2021/01/01 08:23:27;;;;;;;1999.90;999.90;;;4.00;99.90;;;;;;5036418;28;20173;-85
2021/01/01 08:25:54;;;;;;;1999.90;999.90;;;4.00;99.90;;;;;;5019798;28;20532;-85
2021/01/01 08:28:28;;;;;;;1999.90;999.90;;;4.00;99.90;;;;;;5018947;28;20538;-85
2021/01/01 08:31:00;;;;;;;1999.90;999.90;;;4.00;99.90;;;;;;5018234;28;20157;-85
2021/01/01 08:33:29;;;;;;;1999.90;999.90;;;4.10;99.90;;;;;;5036855;28;20669;-85
2021/01/01 08:36:13;;;;;;;1999.90;999.90;;;4.20;99.90;;;;;;5018462;28;20204;-85
2021/01/01 08:38:42;;;;;;;1999.90;999.90;;;4.20;99.90;;;;;;5037345;28;20204;-85
2021/01/01 08:41:18;;;;;;;1999.90;999.90;;;4.20;99.90;;;;;;5036849;28;20533;-86
2021/01/01 08:43:45;;;;;;;1999.90;999.90;;;4.30;99.90;;;;;;5036794;28;20595;-85
2021/01/01 08:46:18;;;;;;;1999.90;999.90;;;4.30;99.90;;;;;;5036187;28;20156;-85
2021/01/01 08:48:44;;;;;;;1999.90;999.90;;;4.30;99.90;;;;;;5018770;28;20323;-85
2021/01/01 08:51:10;;;;;;;1999.90;999.90;;;4.50;99.90;;;;;;5037309;28;20145;-85
2021/01/01 08:53:40;;;;;;;1999.90;999.90;;;4.50;99.90;;;;;;5018955;28;20176;-85
2021/01/01 08:56:06;;;;;;;1999.90;999.90;;;4.50;99.90;;;;;;5036156;28;20170;-85
2021/01/01 08:58:32;;;;;;;1999.90;999.90;;;4.50;99.90;;;;;;5035674;28;20169;-85
2021/01/01 09:01:17;;;;;;;1999.90;999.90;;;4.60;99.90;;;;;;5036008;28;20166;-85
2021/01/01 09:03:43;;;;;;;1999.90;999.90;;;4.60;99.90;;;;;;5017251;28;20207;-86
2021/01/01 09:06:17;;;;;;;1999.90;999.90;;;4.60;99.90;;;;;;5017367;28;20528;-85
2021/01/01 09:08:42;;;;;;;1999.90;999.90;;;4.60;99.90;;;;;;5017968;28;20168;-85
2021/01/01 09:11:22;;;;;;;1999.90;999.90;;;4.60;99.90;;;;;;5035527;28;20647;-86
2021/01/01 09:14:00;;;;;;;1999.90;999.90;;;4.60;99.90;;;;;;5035928;28;20141;-85
2021/01/01 09:16:26;;;;;;;1999.90;999.90;;;4.70;99.90;;;;;;5035160;28;20643;-85
2021/01/01 09:18:52;;;;;;;1999.90;999.90;;;4.70;99.90;;;;;;5017449;28;20177;-85
2021/01/01 09:21:18;;;;;;;1999.90;999.90;;;4.80;99.90;;;;;;5017736;28;20169;-85
2021/01/01 09:23:52;;;;;;;1999.90;999.90;;;4.80;99.90;;;;;;5035475;28;20208;-85
2021/01/01 09:26:25;;;;;;;1999.90;999.90;;;4.70;99.90;;;;;;5035201;28;20172;-85
2021/01/01 09:29:07;;;;;;;1999.90;999.90;;;4.70;99.90;;;;;;5035372;28;20161;-85
2021/01/01 09:31:38;;;;;;;1999.90;999.90;;;4.60;99.90;;;;;;5034890;28;20166;-85
2021/01/01 09:34:08;;;;;;;1999.90;999.90;;;4.50;99.90;;;;;;5035799;28;20157;-85
2021/01/01 09:36:38;;;;;;;1999.90;999.90;;;4.60;99.90;;;;;;5035480;28;20248;-85
2021/01/01 09:39:08;;;;;;;1999.90;999.90;;;4.60;99.90;;;;;;5035423;28;20161;-85
2021/01/01 09:41:38;;;;;;;1999.90;999.90;;;4.70;99.90;;;;;;5035067;28;20691;-85
2021/01/01 09:44:04;;;;;;;1999.90;999.90;;;4.80;99.90;;;;;;5016974;28;20204;-85
2021/01/01 09:46:30;;;;;;;1999.90;999.90;;;4.80;99.90;;;;;;5035600;28;20224;-85
2021/01/01 09:48:55;;;;;;;1999.90;999.90;;;4.70;99.90;;;;;;5035005;28;20665;-85
2021/01/01 09:51:21;;;;;;;1999.90;999.90;;;4.80;99.90;;;;;;5017421;28;20311;-85
2021/01/01 09:53:46;;;;;;;1999.90;999.90;;;4.90;99.90;;;;;;5017311;28;20172;-85
2021/01/01 09:56:12;;;;;;;1999.90;999.90;;;5.00;99.90;;;;;;5035092;28;20679;-85
2021/01/01 09:58:38;;;;;;;1999.90;999.90;;;4.90;99.90;;;;;;5035225;28;20165;-85
2021/01/01 10:01:12;;;;;;;1999.90;999.90;;;5.00;99.90;;;;;;5034756;28;20164;-85
2021/01/01 10:03:39;;;;;;;1999.90;999.90;;;5.00;99.90;;;;;;5035576;28;20177;-85
2021/01/01 10:06:05;;;;;;;1999.90;999.90;;;5.00;99.90;;;;;;5034346;28;20161;-85
2021/01/01 10:08:31;;;;;;;1999.90;999.90;;;5.00;99.90;;;;;;5017190;28;20169;-85
2021/01/01 10:10:57;;;;;;;1999.90;999.90;;;5.00;99.90;;;;;;5035347;28;20431;-85
2021/01/01 10:13:22;;;;;;;1999.90;999.90;;;5.10;99.90;;;;;;5035389;28;20215;-85
2021/01/01 10:15:48;;;;;;;1999.90;999.90;;;5.10;99.90;;;;;;5034970;28;20632;-85
2021/01/01 10:18:14;;;;;;;1999.90;999.90;;;5.00;99.90;;;;;;5038047;28;20181;-86
2021/01/01 10:20:39;;;;;;;1999.90;999.90;;;5.00;99.90;;;;;;5038605;28;20543;-86
2021/01/01 10:23:05;;;;;;;1999.90;999.90;;;5.10;99.90;;;;;;5039086;28;20196;-85
2021/01/01 10:25:31;;;;;;;1999.90;999.90;;;5.10;99.90;;;;;;5038980;28;20662;-85
2021/01/01 10:27:56;;;;;;;1999.90;999.90;;;5.00;99.90;;;;;;5021428;28;20509;-85
2021/01/01 10:30:22;;;;;;;1999.90;999.90;;;5.00;99.90;;;;;;5038777;28;20292;-86
2021/01/01 10:32:48;;;;;;;1999.90;999.90;;;5.00;99.90;;;;;;5038782;28;20177;-85
2021/01/01 10:35:13;;;;;;;1999.90;999.90;;;5.10;99.90;;;;;;5038882;28;20177;-85
2021/01/01 10:37:39;;;;;;;1999.90;999.90;;;5.10;99.90;;;;;;5038532;28;20644;-85
2021/01/01 10:40:05;;;;;;;1999.90;999.90;;;5.10;99.90;;;;;;5038417;28;20586;-85
2021/01/01 10:42:31;;;;;;;1999.90;999.90;;;5.10;99.90;;;;;;5021021;28;20196;-85
2021/01/01 10:44:57;;;;;;;1999.90;999.90;;;5.20;99.90;;;;;;5021179;28;20210;-86
2021/01/01 10:47:23;;;;;;;1999.90;999.90;;;5.20;99.90;;;;;;5037970;28;20200;-85
2021/01/01 10:49:49;;;;;;;1999.90;999.90;;;5.30;99.90;;;;;;5090691;23;20240;-83
2021/01/01 10:52:14;;;;;;;1999.90;999.90;;;5.30;99.90;;;;;;5041173;28;20168;-83
2021/01/01 10:54:40;;;;;;;1999.90;999.90;;;5.30;99.90;;;;;;5041241;28;20169;-83
2021/01/01 10:57:16;;;;;;;1999.90;999.90;;;5.30;99.90;;;;;;5041430;28;20640;-83
2021/01/01 10:59:41;;;;;;;1999.90;999.90;;;5.30;99.90;;;;;;5023711;28;20551;-83
2021/01/01 11:02:07;;;;;;;1999.90;999.90;;;5.30;99.90;;;;;;5041519;28;20193;-83
2021/01/01 11:04:33;;;;;;;1999.90;999.90;;;5.30;99.90;;;;;;5041868;28;20173;-83
2021/01/01 11:07:02;;;;;;;1999.90;999.90;;;5.20;99.90;;;;;;5041712;28;20644;-83
2021/01/01 11:09:34;;;;;;;1999.90;999.90;;;5.10;99.90;;;;;;5041299;28;20188;-83
2021/01/01 11:11:59;;;;;;;1999.90;999.90;;;5.20;99.90;;;;;;5040882;28;20188;-82
2021/01/01 11:14:48;;;;;;;1999.90;999.90;;;5.30;99.90;;;;;;5040989;28;20168;-83
2021/01/01 12:21:59;;;;;;;1999.90;999.90;;;5.70;99.90;;;;;;5023803;28;20185;-83
2021/01/01 12:26:58;;;;;;;1999.90;999.90;;;5.70;99.90;;;;;;5258904;23;20228;-84
2021/01/01 12:29:26;;;;;;;1999.90;999.90;;;5.80;99.90;;;;;;5040380;28;20173;-84
2021/01/01 12:31:52;;;;;;;1999.90;999.90;;;5.80;99.90;;;;;;5045701;28;20168;-84
2021/01/01 12:34:18;;;;;;;1999.90;999.90;;;5.80;99.90;;;;;;5030907;28;20224;-84
2021/01/01 12:36:44;;;;;;;1999.90;999.90;;;5.80;99.90;;;;;;5041645;28;20172;-84
2021/01/01 12:39:10;;;;;;;1999.90;999.90;;;5.80;99.90;;;;;;5022008;28;20632;-84
2021/01/01 12:41:36;;;;;;;1999.90;999.90;;;5.80;99.90;;;;;;5058110;23;20244;-84
2021/01/01 12:44:01;;;;;;;1999.90;999.90;;;5.70;99.90;;;;;;5018440;28;20196;-84
2021/01/01 12:46:27;;;;;;;1999.90;999.90;;;5.70;99.90;;;;;;5018854;28;20759;-84
2021/01/01 12:48:53;;;;;;;1999.90;999.90;;;5.70;99.90;;;;;;5037228;28;20165;-84
2021/01/01 12:51:18;;;;;;;1999.90;999.90;;;5.70;99.90;;;;;;5036805;28;20191;-83
2021/01/01 12:53:44;;;;;;;1999.90;999.90;;;5.70;99.90;;;;;;5036355;28;20168;-84
2021/01/01 12:56:10;;;;;;;1999.90;999.90;;;5.70;99.90;;;;;;5018795;28;20180;-84
2021/01/01 12:58:36;;;;;;;1999.90;999.90;;;5.90;99.90;;;;;;5018703;28;20511;-84
2021/01/01 13:01:02;;;;;;;1999.90;999.90;;;6.00;99.90;;;;;;5018655;28;20169;-84
2021/01/01 13:03:28;;;;;;;1999.90;999.90;;;5.90;99.90;;;;;;5036124;28;20193;-84
2021/01/01 13:05:54;;;;;;;1999.90;999.90;;;5.90;99.90;;;;;;5036780;28;20400;-84
2021/01/01 13:08:19;;;;;;;1999.90;999.90;;;6.00;99.90;;;;;;5017879;28;20169;-84
2021/01/01 13:10:45;;;;;;;1999.90;999.90;;;6.00;99.90;;;;;;5035907;28;20169;-84
2021/01/01 13:13:11;;;;;;;1999.90;999.90;;;6.00;99.90;;;;;;5035979;28;20199;-84
2021/01/01 13:15:36;;;;;;;1999.90;999.90;;;6.00;99.90;;;;;;5018397;28;20165;-83
2021/01/01 13:18:02;;;;;;;1999.90;999.90;;;6.00;99.90;;;;;;5018296;28;20200;-83
2021/01/01 13:20:30;;;;;;;1999.90;999.90;;;6.00;99.90;;;;;;5017971;28;20683;-84
2021/01/01 13:22:56;;;;;;;1999.90;999.90;;;6.00;99.90;;;;;;5035902;28;20280;-84
2021/01/01 13:25:22;;;;;;;1999.90;999.90;;;6.00;99.90;;;;;;5035896;28;20189;-84